Aurora, North Carolina
Current Conditions -  °F | °C
As of 7:54 PM on Friday 24 Oct 2014 (Local Time) from KEWN Reporting Station
Clear Clear  
Wind Chill: 56°   Ceiling: Unl
Heat Index: 56°   Visibility: 10mi
Dew Point: 52°   Wind: 3mph
Humidity: 87%   Direction: 230°SW
Pressure: 29.98"   Gusts: NA
Location:  35.31°N, 76.79°W
Report Text: KEWN 242354Z 23003KT 10SM CLR 13/11 A2998 RMK AO2 SLP151 T01330111 10228 20133 52010
Loading
Personal Weather Stations






























Interactive Weather Map
Tropical Storm Tracking
New forecast layout! Learn more

10-Day Weather Forecast

Advertisements
Track Severe Weather on mobile